sensor_id;sensor_type;location;lat;lon;timestamp;P1;durP1;ratioP1;P2;durP2;ratioP2
78581;SDS011;67878;46.242;5.974;2023-03-01T00:01:38;3.10;;;2.72;;
78581;SDS011;67878;46.242;5.974;2023-03-01T00:04:04;2.90;;;2.65;;
78581;SDS011;67878;46.242;5.974;2023-03-01T00:06:30;3.20;;;2.85;;
78581;SDS011;67878;46.242;5.974;2023-03-01T00:09:03;3.38;;;2.70;;
78581;SDS011;67878;46.242;5.974;2023-03-01T00:11:32;3.22;;;2.70;;
78581;SDS011;67878;46.242;5.974;2023-03-01T00:14:02;3.35;;;3.05;;
78581;SDS011;67878;46.242;5.974;2023-03-01T00:16:35;3.95;;;3.03;;
78581;SDS011;67878;46.242;5.974;2023-03-01T00:19:11;3.17;;;2.88;;
78581;SDS011;67878;46.242;5.974;2023-03-01T00:21:45;2.90;;;2.45;;
78581;SDS011;67878;46.242;5.974;2023-03-01T00:24:19;4.00;;;3.22;;
78581;SDS011;67878;46.242;5.974;2023-03-01T00:26:47;3.58;;;2.80;;
78581;SDS011;67878;46.242;5.974;2023-03-01T00:29:12;3.67;;;3.08;;
78581;SDS011;67878;46.242;5.974;2023-03-01T00:31:38;3.30;;;3.00;;
78581;SDS011;67878;46.242;5.974;2023-03-01T00:34:04;3.15;;;2.85;;
78581;SDS011;67878;46.242;5.974;2023-03-01T00:36:35;3.30;;;2.78;;
78581;SDS011;67878;46.242;5.974;2023-03-01T00:39:07;4.30;;;2.78;;
78581;SDS011;67878;46.242;5.974;2023-03-01T00:41:35;3.85;;;2.83;;
78581;SDS011;67878;46.242;5.974;2023-03-01T00:44:00;3.17;;;2.88;;
78581;SDS011;67878;46.242;5.974;2023-03-01T00:46:26;3.53;;;2.95;;
78581;SDS011;67878;46.242;5.974;2023-03-01T00:48:52;3.30;;;2.97;;
78581;SDS011;67878;46.242;5.974;2023-03-01T00:51:21;2.88;;;2.67;;
78581;SDS011;67878;46.242;5.974;2023-03-01T00:53:55;2.90;;;2.65;;
78581;SDS011;67878;46.242;5.974;2023-03-01T00:56:26;3.22;;;3.03;;
78581;SDS011;67878;46.242;5.974;2023-03-01T00:58:55;4.18;;;2.83;;
78581;SDS011;67878;46.242;5.974;2023-03-01T01:01:24;3.92;;;3.53;;
78581;SDS011;67878;46.242;5.974;2023-03-01T01:04:04;3.28;;;2.97;;
78581;SDS011;67878;46.242;5.974;2023-03-01T01:06:44;3.38;;;3.03;;
78581;SDS011;67878;46.242;5.974;2023-03-01T01:09:14;3.75;;;3.03;;
78581;SDS011;67878;46.242;5.974;2023-03-01T01:11:49;3.30;;;3.00;;
78581;SDS011;67878;46.242;5.974;2023-03-01T01:14:18;3.03;;;2.80;;
78581;SDS011;67878;46.242;5.974;2023-03-01T01:16:47;3.22;;;2.80;;
78581;SDS011;67878;46.242;5.974;2023-03-01T01:19:19;3.33;;;2.92;;
78581;SDS011;67878;46.242;5.974;2023-03-01T01:21:52;3.20;;;2.90;;
78581;SDS011;67878;46.242;5.974;2023-03-01T01:24:21;3.78;;;3.30;;
78581;SDS011;67878;46.242;5.974;2023-03-01T01:26:48;3.25;;;2.95;;
78581;SDS011;67878;46.242;5.974;2023-03-01T01:29:14;4.22;;;3.17;;
78581;SDS011;67878;46.242;5.974;2023-03-01T01:31:40;3.42;;;3.13;;
78581;SDS011;67878;46.242;5.974;2023-03-01T01:34:07;3.67;;;3.25;;
78581;SDS011;67878;46.242;5.974;2023-03-01T01:36:38;4.13;;;3.35;;
78581;SDS011;67878;46.242;5.974;2023-03-01T01:39:09;4.13;;;3.35;;
78581;SDS011;67878;46.242;5.974;2023-03-01T01:41:43;3.78;;;2.97;;
78581;SDS011;67878;46.242;5.974;2023-03-01T01:52:32;3.80;;;3.50;;
78581;SDS011;67878;46.242;5.974;2023-03-01T01:55:08;4.30;;;3.80;;
78581;SDS011;67878;46.242;5.974;2023-03-01T01:57:46;3.80;;;3.45;;
78581;SDS011;67878;46.242;5.974;2023-03-01T02:00:19;4.15;;;3.65;;
78581;SDS011;67878;46.242;5.974;2023-03-01T02:02:58;3.35;;;3.00;;
78581;SDS011;67878;46.242;5.974;2023-03-01T02:08:16;3.83;;;3.28;;
78581;SDS011;67878;46.242;5.974;2023-03-01T02:10:49;3.28;;;2.97;;
78581;SDS011;67878;46.242;5.974;2023-03-01T02:13:19;3.85;;;3.55;;
78581;SDS011;67878;46.242;5.974;2023-03-01T02:15:47;3.75;;;3.45;;
78581;SDS011;67878;46.242;5.974;2023-03-01T02:18:17;4.63;;;3.40;;
78581;SDS011;67878;46.242;5.974;2023-03-01T02:23:28;3.47;;;3.10;;
78581;SDS011;67878;46.242;5.974;2023-03-01T02:28:52;5.30;;;3.30;;
78581;SDS011;67878;46.242;5.974;2023-03-01T02:31:18;3.45;;;3.15;;
78581;SDS011;67878;46.242;5.974;2023-03-01T02:34:04;3.85;;;3.30;;
78581;SDS011;67878;46.242;5.974;2023-03-01T02:36:53;3.90;;;3.50;;
78581;SDS011;67878;46.242;5.974;2023-03-01T02:39:21;3.72;;;3.22;;
78581;SDS011;67878;46.242;5.974;2023-03-01T02:41:54;3.50;;;3.20;;
78581;SDS011;67878;46.242;5.974;2023-03-01T02:44:29;4.53;;;3.40;;
78581;SDS011;67878;46.242;5.974;2023-03-01T02:46:57;3.70;;;3.33;;
78581;SDS011;67878;46.242;5.974;2023-03-01T02:49:31;3.70;;;3.20;;
78581;SDS011;67878;46.242;5.974;2023-03-01T02:55:03;3.78;;;3.35;;
78581;SDS011;67878;46.242;5.974;2023-03-01T02:57:38;3.50;;;3.10;;
78581;SDS011;67878;46.242;5.974;2023-03-01T03:00:07;3.58;;;3.28;;
78581;SDS011;67878;46.242;5.974;2023-03-01T03:02:44;3.78;;;3.47;;
78581;SDS011;67878;46.242;5.974;2023-03-01T03:05:21;3.20;;;2.90;;
78581;SDS011;67878;46.242;5.974;2023-03-01T03:07:52;4.13;;;3.70;;
78581;SDS011;67878;46.242;5.974;2023-03-01T03:10:20;4.60;;;3.92;;
78581;SDS011;67878;46.242;5.974;2023-03-01T03:12:55;3.35;;;3.08;;
78581;SDS011;67878;46.242;5.974;2023-03-01T03:15:22;4.38;;;3.67;;
78581;SDS011;67878;46.242;5.974;2023-03-01T03:17:49;3.80;;;3.25;;
78581;SDS011;67878;46.242;5.974;2023-03-01T03:20:16;4.30;;;3.90;;
78581;SDS011;67878;46.242;5.974;2023-03-01T03:22:49;3.80;;;3.40;;
78581;SDS011;67878;46.242;5.974;2023-03-01T03:25:16;5.40;;;3.58;;
78581;SDS011;67878;46.242;5.974;2023-03-01T03:27:42;4.00;;;3.63;;
78581;SDS011;67878;46.242;5.974;2023-03-01T03:30:10;3.95;;;3.63;;
78581;SDS011;67878;46.242;5.974;2023-03-01T03:32:41;4.10;;;3.70;;
78581;SDS011;67878;46.242;5.974;2023-03-01T03:35:17;3.90;;;3.60;;
78581;SDS011;67878;46.242;5.974;2023-03-01T03:37:44;3.85;;;3.47;;
78581;SDS011;67878;46.242;5.974;2023-03-01T03:43:04;3.65;;;3.28;;
78581;SDS011;67878;46.242;5.974;2023-03-01T03:47:58;4.63;;;3.63;;
78581;SDS011;67878;46.242;5.974;2023-03-01T03:50:25;3.33;;;3.03;;
78581;SDS011;67878;46.242;5.974;2023-03-01T03:52:50;3.90;;;3.50;;
78581;SDS011;67878;46.242;5.974;2023-03-01T03:55:15;3.75;;;3.35;;
78581;SDS011;67878;46.242;5.974;2023-03-01T04:00:10;4.07;;;3.67;;
78581;SDS011;67878;46.242;5.974;2023-03-01T04:02:40;4.85;;;3.97;;
78581;SDS011;67878;46.242;5.974;2023-03-01T04:05:07;3.50;;;3.20;;
78581;SDS011;67878;46.242;5.974;2023-03-01T04:07:34;3.53;;;3.22;;
78581;SDS011;67878;46.242;5.974;2023-03-01T04:10:02;4.45;;;3.92;;
78581;SDS011;67878;46.242;5.974;2023-03-01T04:12:28;5.15;;;4.00;;
78581;SDS011;67878;46.242;5.974;2023-03-01T04:14:54;3.72;;;3.30;;
78581;SDS011;67878;46.242;5.974;2023-03-01T04:17:19;3.78;;;3.22;;
78581;SDS011;67878;46.242;5.974;2023-03-01T04:19:45;3.83;;;3.10;;
78581;SDS011;67878;46.242;5.974;2023-03-01T04:22:13;3.25;;;3.00;;
78581;SDS011;67878;46.242;5.974;2023-03-01T04:24:42;5.50;;;3.95;;
78581;SDS011;67878;46.242;5.974;2023-03-01T04:27:08;4.00;;;3.60;;
78581;SDS011;67878;46.242;5.974;2023-03-01T04:29:34;4.43;;;3.88;;
78581;SDS011;67878;46.242;5.974;2023-03-01T04:31:59;4.30;;;3.90;;
78581;SDS011;67878;46.242;5.974;2023-03-01T04:34:25;5.43;;;3.72;;
78581;SDS011;67878;46.242;5.974;2023-03-01T04:36:51;3.80;;;3.47;;
78581;SDS011;67878;46.242;5.974;2023-03-01T04:39:18;3.88;;;3.47;;
78581;SDS011;67878;46.242;5.974;2023-03-01T04:41:47;4.00;;;3.47;;
78581;SDS011;67878;46.242;5.974;2023-03-01T04:44:18;4.10;;;3.50;;
78581;SDS011;67878;46.242;5.974;2023-03-01T04:46:48;4.30;;;3.90;;
78581;SDS011;67878;46.242;5.974;2023-03-01T04:49:19;4.00;;;3.45;;
78581;SDS011;67878;46.242;5.974;2023-03-01T04:51:48;3.85;;;3.42;;
78581;SDS011;67878;46.242;5.974;2023-03-01T04:54:22;4.70;;;4.18;;
78581;SDS011;67878;46.242;5.974;2023-03-01T04:56:54;5.43;;;4.00;;
78581;SDS011;67878;46.242;5.974;2023-03-01T04:59:21;4.28;;;3.88;;
78581;SDS011;67878;46.242;5.974;2023-03-01T05:01:48;4.30;;;3.90;;
78581;SDS011;67878;46.242;5.974;2023-03-01T05:04:14;4.50;;;3.95;;
78581;SDS011;67878;46.242;5.974;2023-03-01T05:06:39;4.20;;;3.83;;
78581;SDS011;67878;46.242;5.974;2023-03-01T05:09:05;3.80;;;3.35;;
78581;SDS011;67878;46.242;5.974;2023-03-01T05:11:31;4.07;;;3.70;;
78581;SDS011;67878;46.242;5.974;2023-03-01T05:14:05;4.63;;;4.05;;
78581;SDS011;67878;46.242;5.974;2023-03-01T05:16:35;4.10;;;3.30;;
78581;SDS011;67878;46.242;5.974;2023-03-01T05:19:04;3.90;;;3.53;;
78581;SDS011;67878;46.242;5.974;2023-03-01T05:21:37;4.32;;;3.92;;
78581;SDS011;67878;46.242;5.974;2023-03-01T05:24:26;4.10;;;3.70;;
78581;SDS011;67878;46.242;5.974;2023-03-01T05:26:58;4.35;;;3.95;;
78581;SDS011;67878;46.242;5.974;2023-03-01T05:29:28;3.80;;;3.50;;
78581;SDS011;67878;46.242;5.974;2023-03-01T05:31:56;4.38;;;3.97;;
78581;SDS011;67878;46.242;5.974;2023-03-01T05:36:56;3.53;;;3.20;;
78581;SDS011;67878;46.242;5.974;2023-03-01T05:39:23;4.00;;;3.70;;
78581;SDS011;67878;46.242;5.974;2023-03-01T05:42:04;4.13;;;3.50;;
78581;SDS011;67878;46.242;5.974;2023-03-01T05:44:34;4.32;;;3.80;;
78581;SDS011;67878;46.242;5.974;2023-03-01T05:47:02;3.75;;;3.25;;
78581;SDS011;67878;46.242;5.974;2023-03-01T05:49:31;3.63;;;3.30;;
78581;SDS011;67878;46.242;5.974;2023-03-01T05:52:00;3.42;;;3.13;;
78581;SDS011;67878;46.242;5.974;2023-03-01T05:54:36;3.90;;;3.50;;
78581;SDS011;67878;46.242;5.974;2023-03-01T05:57:07;3.65;;;3.17;;
78581;SDS011;67878;46.242;5.974;2023-03-01T05:59:38;3.72;;;3.33;;
78581;SDS011;67878;46.242;5.974;2023-03-01T06:02:03;4.13;;;3.35;;
78581;SDS011;67878;46.242;5.974;2023-03-01T06:04:28;4.10;;;3.67;;
78581;SDS011;67878;46.242;5.974;2023-03-01T06:06:54;3.72;;;3.40;;
78581;SDS011;67878;46.242;5.974;2023-03-01T06:09:19;3.80;;;3.50;;
78581;SDS011;67878;46.242;5.974;2023-03-01T06:11:46;3.60;;;3.17;;
78581;SDS011;67878;46.242;5.974;2023-03-01T06:14:14;3.72;;;3.42;;
78581;SDS011;67878;46.242;5.974;2023-03-01T06:16:41;3.38;;;3.08;;
78581;SDS011;67878;46.242;5.974;2023-03-01T06:19:13;3.97;;;3.60;;
78581;SDS011;67878;46.242;5.974;2023-03-01T06:21:41;3.78;;;3.42;;
78581;SDS011;67878;46.242;5.974;2023-03-01T06:24:11;3.58;;;3.28;;
78581;SDS011;67878;46.242;5.974;2023-03-01T06:26:47;3.90;;;3.53;;
78581;SDS011;67878;46.242;5.974;2023-03-01T06:29:16;3.63;;;3.33;;
78581;SDS011;67878;46.242;5.974;2023-03-01T06:31:44;3.72;;;3.42;;
78581;SDS011;67878;46.242;5.974;2023-03-01T06:34:10;4.05;;;3.50;;
78581;SDS011;67878;46.242;5.974;2023-03-01T06:36:38;3.83;;;3.40;;
78581;SDS011;67878;46.242;5.974;2023-03-01T06:39:04;4.30;;;3.40;;
78581;SDS011;67878;46.242;5.974;2023-03-01T06:41:31;3.55;;;3.22;;
78581;SDS011;67878;46.242;5.974;2023-03-01T06:44:05;4.10;;;3.42;;
78581;SDS011;67878;46.242;5.974;2023-03-01T06:46:33;6.57;;;3.33;;
78581;SDS011;67878;46.242;5.974;2023-03-01T06:49:02;6.20;;;3.60;;
78581;SDS011;67878;46.242;5.974;2023-03-01T06:51:35;4.75;;;3.78;;
78581;SDS011;67878;46.242;5.974;2023-03-01T06:54:07;4.63;;;3.30;;
78581;SDS011;67878;46.242;5.974;2023-03-01T06:56:37;3.97;;;3.47;;
78581;SDS011;67878;46.242;5.974;2023-03-01T06:59:04;5.82;;;3.65;;
78581;SDS011;67878;46.242;5.974;2023-03-01T07:01:33;5.45;;;3.75;;
78581;SDS011;67878;46.242;5.974;2023-03-01T07:04:01;8.52;;;3.58;;
78581;SDS011;67878;46.242;5.974;2023-03-01T07:06:35;6.10;;;3.47;;
78581;SDS011;67878;46.242;5.974;2023-03-01T07:09:05;9.55;;;3.58;;
78581;SDS011;67878;46.242;5.974;2023-03-01T07:11:30;6.80;;;3.85;;
78581;SDS011;67878;46.242;5.974;2023-03-01T07:13:57;4.53;;;3.55;;
78581;SDS011;67878;46.242;5.974;2023-03-01T07:16:25;6.38;;;3.70;;
78581;SDS011;67878;46.242;5.974;2023-03-01T07:18:50;6.95;;;3.60;;
78581;SDS011;67878;46.242;5.974;2023-03-01T07:21:15;7.30;;;3.92;;
78581;SDS011;67878;46.242;5.974;2023-03-01T07:23:41;6.53;;;3.80;;
78581;SDS011;67878;46.242;5.974;2023-03-01T07:26:07;7.13;;;4.10;;
78581;SDS011;67878;46.242;5.974;2023-03-01T07:28:32;5.57;;;3.47;;
78581;SDS011;67878;46.242;5.974;2023-03-01T07:31:03;8.05;;;3.92;;
78581;SDS011;67878;46.242;5.974;2023-03-01T07:33:29;5.93;;;4.03;;
78581;SDS011;67878;46.242;5.974;2023-03-01T07:35:56;6.45;;;3.58;;
78581;SDS011;67878;46.242;5.974;2023-03-01T07:38:27;3.75;;;3.17;;
78581;SDS011;67878;46.242;5.974;2023-03-01T07:40:53;4.97;;;3.67;;
78581;SDS011;67878;46.242;5.974;2023-03-01T07:43:19;5.00;;;3.67;;
78581;SDS011;67878;46.242;5.974;2023-03-01T07:45:45;4.57;;;3.60;;
78581;SDS011;67878;46.242;5.974;2023-03-01T07:48:11;5.30;;;3.70;;
78581;SDS011;67878;46.242;5.974;2023-03-01T07:50:36;4.80;;;3.83;;
78581;SDS011;67878;46.242;5.974;2023-03-01T07:53:02;4.15;;;3.75;;
78581;SDS011;67878;46.242;5.974;2023-03-01T07:55:27;5.88;;;4.07;;
78581;SDS011;67878;46.242;5.974;2023-03-01T07:57:53;4.70;;;3.58;;
78581;SDS011;67878;46.242;5.974;2023-03-01T08:00:18;6.20;;;3.60;;
78581;SDS011;67878;46.242;5.974;2023-03-01T08:02:44;5.13;;;3.63;;
78581;SDS011;67878;46.242;5.974;2023-03-01T08:05:10;4.38;;;3.50;;
78581;SDS011;67878;46.242;5.974;2023-03-01T08:07:35;4.78;;;3.45;;
78581;SDS011;67878;46.242;5.974;2023-03-01T08:10:01;4.97;;;3.50;;
78581;SDS011;67878;46.242;5.974;2023-03-01T08:12:26;4.97;;;4.05;;
78581;SDS011;67878;46.242;5.974;2023-03-01T08:14:53;5.15;;;3.75;;
78581;SDS011;67878;46.242;5.974;2023-03-01T08:17:18;4.30;;;3.60;;
78581;SDS011;67878;46.242;5.974;2023-03-01T08:19:44;3.90;;;3.50;;
78581;SDS011;67878;46.242;5.974;2023-03-01T08:22:09;6.05;;;3.92;;
78581;SDS011;67878;46.242;5.974;2023-03-01T08:24:36;5.25;;;3.58;;
78581;SDS011;67878;46.242;5.974;2023-03-01T08:27:03;3.17;;;2.88;;
78581;SDS011;67878;46.242;5.974;2023-03-01T08:29:32;4.38;;;3.80;;
78581;SDS011;67878;46.242;5.974;2023-03-01T08:32:00;3.90;;;3.50;;
78581;SDS011;67878;46.242;5.974;2023-03-01T08:34:25;4.13;;;3.60;;
78581;SDS011;67878;46.242;5.974;2023-03-01T08:36:51;5.32;;;4.05;;
78581;SDS011;67878;46.242;5.974;2023-03-01T08:39:18;4.70;;;3.88;;
78581;SDS011;67878;46.242;5.974;2023-03-01T08:41:45;4.40;;;3.53;;
78581;SDS011;67878;46.242;5.974;2023-03-01T08:44:12;4.65;;;3.50;;
78581;SDS011;67878;46.242;5.974;2023-03-01T08:46:39;4.00;;;3.53;;
78581;SDS011;67878;46.242;5.974;2023-03-01T08:49:07;5.68;;;3.47;;
78581;SDS011;67878;46.242;5.974;2023-03-01T08:51:37;5.78;;;4.00;;
78581;SDS011;67878;46.242;5.974;2023-03-01T08:54:03;4.45;;;3.85;;
78581;SDS011;67878;46.242;5.974;2023-03-01T08:56:29;4.05;;;3.65;;
78581;SDS011;67878;46.242;5.974;2023-03-01T08:58:55;4.03;;;3.15;;
78581;SDS011;67878;46.242;5.974;2023-03-01T09:01:20;4.15;;;3.75;;
78581;SDS011;67878;46.242;5.974;2023-03-01T09:03:46;4.03;;;3.60;;
78581;SDS011;67878;46.242;5.974;2023-03-01T09:06:12;4.57;;;3.80;;
78581;SDS011;67878;46.242;5.974;2023-03-01T09:08:39;4.13;;;3.53;;
78581;SDS011;67878;46.242;5.974;2023-03-01T09:11:08;3.92;;;3.53;;
78581;SDS011;67878;46.242;5.974;2023-03-01T09:13:36;3.90;;;3.00;;
78581;SDS011;67878;46.242;5.974;2023-03-01T09:16:03;3.88;;;3.55;;
78581;SDS011;67878;46.242;5.974;2023-03-01T09:18:31;4.32;;;3.38;;
78581;SDS011;67878;46.242;5.974;2023-03-01T09:21:00;4.53;;;3.28;;
78581;SDS011;67878;46.242;5.974;2023-03-01T09:23:41;4.45;;;3.60;;
78581;SDS011;67878;46.242;5.974;2023-03-01T09:26:08;4.72;;;3.78;;
78581;SDS011;67878;46.242;5.974;2023-03-01T09:28:38;4.13;;;3.70;;
78581;SDS011;67878;46.242;5.974;2023-03-01T09:31:09;4.10;;;3.70;;
78581;SDS011;67878;46.242;5.974;2023-03-01T09:36:05;4.35;;;3.72;;
78581;SDS011;67878;46.242;5.974;2023-03-01T09:38:32;4.85;;;3.60;;
78581;SDS011;67878;46.242;5.974;2023-03-01T09:40:58;4.22;;;3.78;;
78581;SDS011;67878;46.242;5.974;2023-03-01T09:46:06;5.05;;;3.70;;
78581;SDS011;67878;46.242;5.974;2023-03-01T09:48:41;3.78;;;3.10;;
78581;SDS011;67878;46.242;5.974;2023-03-01T09:51:16;4.07;;;3.67;;
78581;SDS011;67878;46.242;5.974;2023-03-01T09:53:44;4.63;;;3.55;;
78581;SDS011;67878;46.242;5.974;2023-03-01T09:56:20;4.05;;;3.65;;
78581;SDS011;67878;46.242;5.974;2023-03-01T10:09:34;4.18;;;3.65;;
78581;SDS011;67878;46.242;5.974;2023-03-01T10:12:04;3.80;;;3.50;;
78581;SDS011;67878;46.242;5.974;2023-03-01T10:14:38;4.30;;;3.90;;
78581;SDS011;67878;46.242;5.974;2023-03-01T10:17:15;3.80;;;3.50;;
78581;SDS011;67878;46.242;5.974;2023-03-01T10:19:45;4.13;;;3.60;;
78581;SDS011;67878;46.242;5.974;2023-03-01T10:24:50;4.10;;;3.60;;
78581;SDS011;67878;46.242;5.974;2023-03-01T10:27:23;3.97;;;3.35;;
78581;SDS011;67878;46.242;5.974;2023-03-01T10:32:23;4.55;;;3.83;;
78581;SDS011;67878;46.242;5.974;2023-03-01T10:34:49;3.97;;;3.40;;
78581;SDS011;67878;46.242;5.974;2023-03-01T10:37:16;4.00;;;3.60;;
78581;SDS011;67878;46.242;5.974;2023-03-01T10:40:03;4.40;;;3.55;;
78581;SDS011;67878;46.242;5.974;2023-03-01T10:42:35;3.40;;;3.08;;
78581;SDS011;67878;46.242;5.974;2023-03-01T10:50:48;4.38;;;3.70;;
78581;SDS011;67878;46.242;5.974;2023-03-01T10:53:26;3.90;;;3.50;;
78581;SDS011;67878;46.242;5.974;2023-03-01T10:55:57;3.78;;;3.17;;
78581;SDS011;67878;46.242;5.974;2023-03-01T10:58:25;4.32;;;3.92;;
78581;SDS011;67878;46.242;5.974;2023-03-01T11:03:21;3.95;;;3.58;;
78581;SDS011;67878;46.242;5.974;2023-03-01T11:05:56;4.05;;;3.63;;
78581;SDS011;67878;46.242;5.974;2023-03-01T11:08:43;3.30;;;3.00;;
78581;SDS011;67878;46.242;5.974;2023-03-01T11:14:03;4.53;;;3.80;;
78581;SDS011;67878;46.242;5.974;2023-03-01T11:16:34;4.45;;;3.70;;
78581;SDS011;67878;46.242;5.974;2023-03-01T11:24:24;8.73;;;6.70;;
78581;SDS011;67878;46.242;5.974;2023-03-01T11:26:55;6.18;;;4.90;;
78581;SDS011;67878;46.242;5.974;2023-03-01T11:32:28;6.30;;;4.10;;
78581;SDS011;67878;46.242;5.974;2023-03-01T11:35:05;4.88;;;3.38;;
78581;SDS011;67878;46.242;5.974;2023-03-01T11:40:21;5.50;;;4.10;;
78581;SDS011;67878;46.242;5.974;2023-03-01T11:42:53;6.90;;;4.60;;
78581;SDS011;67878;46.242;5.974;2023-03-01T11:45:48;4.63;;;4.05;;
78581;SDS011;67878;46.242;5.974;2023-03-01T11:54:33;7.28;;;5.22;;
78581;SDS011;67878;46.242;5.974;2023-03-01T12:00:11;9.38;;;6.03;;
78581;SDS011;67878;46.242;5.974;2023-03-01T12:03:28;7.05;;;5.88;;
78581;SDS011;67878;46.242;5.974;2023-03-01T12:11:16;7.80;;;5.80;;
78581;SDS011;67878;46.242;5.974;2023-03-01T12:17:07;5.68;;;4.38;;
78581;SDS011;67878;46.242;5.974;2023-03-01T12:25:48;6.18;;;5.30;;
78581;SDS011;67878;46.242;5.974;2023-03-01T12:52:55;6.30;;;4.88;;
78581;SDS011;67878;46.242;5.974;2023-03-01T13:00:27;5.10;;;4.60;;
78581;SDS011;67878;46.242;5.974;2023-03-01T13:03:15;5.00;;;4.60;;
78581;SDS011;67878;46.242;5.974;2023-03-01T13:11:57;5.38;;;4.60;;
78581;SDS011;67878;46.242;5.974;2023-03-01T13:16:51;4.80;;;4.25;;
78581;SDS011;67878;46.242;5.974;2023-03-01T13:19:18;4.93;;;4.28;;
78581;SDS011;67878;46.242;5.974;2023-03-01T13:21:45;6.00;;;5.00;;
78581;SDS011;67878;46.242;5.974;2023-03-01T13:35:31;4.97;;;3.85;;
78581;SDS011;67878;46.242;5.974;2023-03-01T13:37:51;4.93;;;4.20;;
78581;SDS011;67878;46.242;5.974;2023-03-01T13:42:46;5.88;;;4.88;;
78581;SDS011;67878;46.242;5.974;2023-03-01T13:45:17;4.97;;;4.47;;
78581;SDS011;67878;46.242;5.974;2023-03-01T13:47:46;5.57;;;4.95;;
78581;SDS011;67878;46.242;5.974;2023-03-01T13:50:23;5.47;;;4.93;;
78581;SDS011;67878;46.242;5.974;2023-03-01T13:52:53;5.60;;;4.95;;
78581;SDS011;67878;46.242;5.974;2023-03-01T13:58:04;5.03;;;4.57;;
78581;SDS011;67878;46.242;5.974;2023-03-01T14:00:40;4.57;;;4.03;;
78581;SDS011;67878;46.242;5.974;2023-03-01T14:05:42;5.07;;;4.43;;
78581;SDS011;67878;46.242;5.974;2023-03-01T14:08:23;4.38;;;3.97;;
78581;SDS011;67878;46.242;5.974;2023-03-01T14:10:54;5.60;;;4.97;;
78581;SDS011;67878;46.242;5.974;2023-03-01T14:19:24;4.93;;;4.43;;
78581;SDS011;67878;46.242;5.974;2023-03-01T14:24:36;5.32;;;3.92;;
78581;SDS011;67878;46.242;5.974;2023-03-01T14:27:09;4.95;;;4.45;;
78581;SDS011;67878;46.242;5.974;2023-03-01T14:29:38;4.70;;;4.18;;
78581;SDS011;67878;46.242;5.974;2023-03-01T14:32:24;5.15;;;4.65;;
78581;SDS011;67878;46.242;5.974;2023-03-01T14:34:51;4.53;;;4.13;;
78581;SDS011;67878;46.242;5.974;2023-03-01T14:37:21;5.22;;;4.72;;
78581;SDS011;67878;46.242;5.974;2023-03-01T14:39:50;6.18;;;5.10;;
78581;SDS011;67878;46.242;5.974;2023-03-01T14:42:17;5.35;;;4.85;;
78581;SDS011;67878;46.242;5.974;2023-03-01T14:44:45;5.45;;;4.43;;
78581;SDS011;67878;46.242;5.974;2023-03-01T14:47:14;5.20;;;4.70;;
78581;SDS011;67878;46.242;5.974;2023-03-01T14:49:49;4.80;;;4.05;;
78581;SDS011;67878;46.242;5.974;2023-03-01T14:52:21;5.57;;;4.30;;
78581;SDS011;67878;46.242;5.974;2023-03-01T14:54:48;4.72;;;4.28;;
78581;SDS011;67878;46.242;5.974;2023-03-01T14:57:23;5.78;;;3.88;;
78581;SDS011;67878;46.242;5.974;2023-03-01T14:59:54;5.15;;;4.50;;
78581;SDS011;67878;46.242;5.974;2023-03-01T15:02:24;5.20;;;4.50;;
78581;SDS011;67878;46.242;5.974;2023-03-01T15:09:43;4.68;;;4.28;;
78581;SDS011;67878;46.242;5.974;2023-03-01T15:12:32;5.25;;;4.38;;
78581;SDS011;67878;46.242;5.974;2023-03-01T15:15:00;4.65;;;4.20;;
78581;SDS011;67878;46.242;5.974;2023-03-01T15:20:04;4.95;;;4.50;;
78581;SDS011;67878;46.242;5.974;2023-03-01T15:22:31;4.70;;;4.20;;
78581;SDS011;67878;46.242;5.974;2023-03-01T15:24:57;5.35;;;4.60;;
78581;SDS011;67878;46.242;5.974;2023-03-01T15:27:23;5.28;;;4.78;;
78581;SDS011;67878;46.242;5.974;2023-03-01T15:29:55;4.82;;;4.32;;
78581;SDS011;67878;46.242;5.974;2023-03-01T15:32:35;4.95;;;4.47;;
78581;SDS011;67878;46.242;5.974;2023-03-01T15:38:22;4.85;;;4.18;;
78581;SDS011;67878;46.242;5.974;2023-03-01T15:40:49;5.28;;;4.78;;
78581;SDS011;67878;46.242;5.974;2023-03-01T15:43:36;4.40;;;4.00;;
78581;SDS011;67878;46.242;5.974;2023-03-01T15:46:05;5.22;;;4.45;;
78581;SDS011;67878;46.242;5.974;2023-03-01T15:48:43;6.03;;;4.38;;
78581;SDS011;67878;46.242;5.974;2023-03-01T15:51:10;4.95;;;4.45;;
78581;SDS011;67878;46.242;5.974;2023-03-01T15:53:39;4.80;;;4.30;;
78581;SDS011;67878;46.242;5.974;2023-03-01T15:56:05;5.10;;;4.40;;
78581;SDS011;67878;46.242;5.974;2023-03-01T15:58:32;6.20;;;4.88;;
78581;SDS011;67878;46.242;5.974;2023-03-01T16:00:58;5.22;;;4.72;;
78581;SDS011;67878;46.242;5.974;2023-03-01T16:03:24;5.07;;;4.57;;
78581;SDS011;67878;46.242;5.974;2023-03-01T16:05:49;4.90;;;4.40;;
78581;SDS011;67878;46.242;5.974;2023-03-01T16:08:15;5.32;;;4.82;;
78581;SDS011;67878;46.242;5.974;2023-03-01T16:10:42;5.18;;;4.50;;
78581;SDS011;67878;46.242;5.974;2023-03-01T16:13:09;4.95;;;4.45;;
78581;SDS011;67878;46.242;5.974;2023-03-01T16:15:35;5.38;;;4.88;;
78581;SDS011;67878;46.242;5.974;2023-03-01T16:18:00;5.03;;;4.43;;
78581;SDS011;67878;46.242;5.974;2023-03-01T16:20:27;4.85;;;4.45;;
78581;SDS011;67878;46.242;5.974;2023-03-01T16:22:54;4.47;;;4.07;;
78581;SDS011;67878;46.242;5.974;2023-03-01T16:27:48;4.70;;;4.20;;
78581;SDS011;67878;46.242;5.974;2023-03-01T16:30:16;4.35;;;3.95;;
78581;SDS011;67878;46.242;5.974;2023-03-01T16:32:43;4.95;;;4.30;;
78581;SDS011;67878;46.242;5.974;2023-03-01T16:35:11;5.30;;;4.80;;
78581;SDS011;67878;46.242;5.974;2023-03-01T16:37:37;5.05;;;4.40;;
78581;SDS011;67878;46.242;5.974;2023-03-01T16:40:04;5.32;;;4.82;;
78581;SDS011;67878;46.242;5.974;2023-03-01T16:42:34;5.03;;;4.53;;
78581;SDS011;67878;46.242;5.974;2023-03-01T16:45:00;5.15;;;4.65;;
78581;SDS011;67878;46.242;5.974;2023-03-01T16:47:27;5.97;;;4.90;;
78581;SDS011;67878;46.242;5.974;2023-03-01T16:49:53;4.63;;;4.13;;
78581;SDS011;67878;46.242;5.974;2023-03-01T16:52:19;4.97;;;4.25;;
78581;SDS011;67878;46.242;5.974;2023-03-01T16:54:45;4.78;;;4.38;;
78581;SDS011;67878;46.242;5.974;2023-03-01T16:57:10;4.75;;;4.35;;
78581;SDS011;67878;46.242;5.974;2023-03-01T16:59:36;4.78;;;4.25;;
78581;SDS011;67878;46.242;5.974;2023-03-01T17:02:02;5.20;;;4.40;;
78581;SDS011;67878;46.242;5.974;2023-03-01T17:04:29;5.43;;;4.18;;
78581;SDS011;67878;46.242;5.974;2023-03-01T17:06:54;5.28;;;4.40;;
78581;SDS011;67878;46.242;5.974;2023-03-01T17:09:20;4.82;;;4.32;;
78581;SDS011;67878;46.242;5.974;2023-03-01T17:11:47;4.55;;;4.15;;
78581;SDS011;67878;46.242;5.974;2023-03-01T17:14:15;5.22;;;4.80;;
78581;SDS011;67878;46.242;5.974;2023-03-01T17:16:42;4.88;;;4.38;;
78581;SDS011;67878;46.242;5.974;2023-03-01T17:19:08;5.03;;;4.28;;
78581;SDS011;67878;46.242;5.974;2023-03-01T17:21:34;10.80;;;8.88;;
78581;SDS011;67878;46.242;5.974;2023-03-01T17:24:00;9.75;;;8.00;;
78581;SDS011;67878;46.242;5.974;2023-03-01T17:26:26;8.48;;;6.25;;
78581;SDS011;67878;46.242;5.974;2023-03-01T17:28:55;7.70;;;6.03;;
78581;SDS011;67878;46.242;5.974;2023-03-01T17:31:22;7.70;;;5.82;;
78581;SDS011;67878;46.242;5.974;2023-03-01T17:33:47;6.25;;;4.95;;
78581;SDS011;67878;46.242;5.974;2023-03-01T17:36:14;7.93;;;4.75;;
78581;SDS011;67878;46.242;5.974;2023-03-01T17:38:41;6.07;;;5.47;;
78581;SDS011;67878;46.242;5.974;2023-03-01T17:41:11;5.35;;;4.63;;
78581;SDS011;67878;46.242;5.974;2023-03-01T17:43:37;6.40;;;5.15;;
78581;SDS011;67878;46.242;5.974;2023-03-01T17:46:02;7.80;;;5.43;;
78581;SDS011;67878;46.242;5.974;2023-03-01T17:48:28;6.65;;;5.25;;
78581;SDS011;67878;46.242;5.974;2023-03-01T17:50:54;6.75;;;5.10;;
78581;SDS011;67878;46.242;5.974;2023-03-01T17:53:20;5.70;;;5.13;;
78581;SDS011;67878;46.242;5.974;2023-03-01T17:55:45;6.18;;;4.68;;
78581;SDS011;67878;46.242;5.974;2023-03-01T17:58:17;7.53;;;5.15;;